Terminal Aerodrome Forecast
Issued by NWS Knoxville/Tri Cities, TN

Home | Current Version | Previous Version | Text Only | Print | Product List | Glossary On
Versions: 1 2 3 4 5 6 7 8 9 10 11 12 13 14 15 16 17 18 19 20 21 22 23 24 25 26 27 28 29 30
000
FTUS44 KMRX 152329
TAFTYS
TAF
KTYS 152329Z 1600/1624 21008KT P6SM SCT100
     FM160200 00000KT P6SM SCT050
      TEMPO 1605/1609 BKN050
     FM161500 22007KT P6SM SCT250=

USA.gov is the U.S. government's official web portal to all federal, state and local government web resources and services.